createdAt,value
2019-01-05T00:00:02.906Z,5
2019-01-05T00:05:03.081Z,5
2019-01-05T00:10:02.737Z,5
2019-01-05T00:15:05.435Z,5.1
2019-01-05T00:20:02.629Z,5
2019-01-05T00:25:02.726Z,5.1
2019-01-05T00:30:02.877Z,5.1
2019-01-05T00:35:02.920Z,5.2
2019-01-05T00:40:05.012Z,5.2
2019-01-05T00:45:02.610Z,5.2
2019-01-05T00:50:02.781Z,5.2
2019-01-05T00:55:05.317Z,5.3
2019-01-05T01:00:02.499Z,5.3
2019-01-05T01:05:02.612Z,5.3
2019-01-05T01:10:03.365Z,5.3
2019-01-05T01:15:02.478Z,5.4
2019-01-05T01:20:02.619Z,5.4
2019-01-05T01:25:02.715Z,5.4
2019-01-05T01:30:02.873Z,5.4
2019-01-05T01:35:03.013Z,5.5
2019-01-05T01:40:02.482Z,5.5
2019-01-05T01:45:02.539Z,5.5
2019-01-05T01:50:02.570Z,5.5
2019-01-05T01:55:02.708Z,5.5
2019-01-05T02:00:02.854Z,5.5
2019-01-05T02:05:02.883Z,5.6
2019-01-05T02:10:02.458Z,5.6
2019-01-05T02:15:02.611Z,5.6
2019-01-05T02:20:02.816Z,5.6
2019-01-05T02:25:02.808Z,5.6
2019-01-05T02:30:02.919Z,5.7
2019-01-05T02:35:03.094Z,5.7
2019-01-05T02:40:02.732Z,5.7
2019-01-05T02:45:02.913Z,5.7
2019-01-05T02:50:03.098Z,5.7
2019-01-05T02:55:03.145Z,5.7
2019-01-05T03:00:10.896Z,5.8
2019-01-05T03:05:02.456Z,5.8
2019-01-05T03:10:03.036Z,5.8
2019-01-05T03:15:03.066Z,5.8
2019-01-05T03:20:03.250Z,5.8
2019-01-05T03:25:02.355Z,5.9
2019-01-05T03:30:02.526Z,5.9
2019-01-05T03:35:02.527Z,5.9
2019-01-05T03:40:03.106Z,6
2019-01-05T03:45:03.245Z,6
2019-01-05T03:50:04.926Z,6.1
2019-01-05T03:55:02.582Z,6.1
2019-01-05T04:00:02.669Z,6.1
2019-01-05T04:05:02.838Z,6.2
2019-01-05T04:10:02.418Z,6.2
2019-01-05T04:15:02.519Z,6.2
2019-01-05T04:20:02.617Z,6.3
2019-01-05T04:25:02.740Z,6.3
2019-01-05T04:30:03.034Z,6.3
2019-01-05T04:35:03.160Z,6.4
2019-01-05T04:40:02.738Z,6.4
2019-01-05T04:45:05.420Z,6.5
2019-01-05T04:50:02.500Z,6.4
2019-01-05T04:55:02.670Z,6.5
2019-01-05T05:00:02.732Z,6.5
2019-01-05T05:05:02.836Z,6.5
2019-01-05T05:10:02.447Z,6.6
2019-01-05T05:15:02.547Z,6.6
2019-01-05T05:20:02.628Z,6.6
2019-01-05T05:25:02.723Z,6.6
2019-01-05T05:30:02.867Z,6.6
2019-01-05T05:35:02.914Z,6.6
2019-01-05T05:40:02.439Z,6.6
2019-01-05T05:45:02.590Z,6.6
2019-01-05T05:50:02.647Z,6.6
2019-01-05T05:55:02.725Z,6.6
2019-01-05T06:00:02.867Z,6.6
2019-01-05T06:05:02.874Z,6.6
2019-01-05T06:10:02.441Z,6.6
2019-01-05T06:15:02.536Z,6.6
2019-01-05T06:20:02.735Z,6.6
2019-01-05T06:25:05.297Z,6.6
2019-01-05T06:30:02.560Z,6.6
2019-01-05T06:35:02.705Z,6.7
2019-01-05T06:40:02.344Z,6.7
2019-01-05T06:45:05.018Z,6.7
2019-01-05T06:50:03.114Z,6.7
2019-01-05T06:55:03.137Z,6.7
2019-01-05T07:00:03.301Z,6.7
2019-01-05T07:05:02.449Z,6.7
2019-01-05T07:10:03.039Z,6.7
2019-01-05T07:15:03.086Z,6.7
2019-01-05T07:20:03.273Z,6.7
2019-01-05T07:25:04.900Z,6.8
2019-01-05T07:30:02.952Z,6.8
2019-01-05T07:35:03.127Z,6.8
2019-01-05T07:40:02.725Z,6.8
2019-01-05T07:45:02.890Z,6.9
2019-01-05T07:50:02.967Z,6.9
2019-01-05T07:55:03.041Z,6.9
2019-01-05T08:00:03.090Z,7
2019-01-05T08:05:03.235Z,7
2019-01-05T08:10:02.767Z,7
2019-01-05T08:15:02.931Z,7
2019-01-05T08:20:03.121Z,7.1
2019-01-05T08:25:03.179Z,7.1
2019-01-05T08:30:03.384Z,7.1
2019-01-05T08:35:02.441Z,7.1
2019-01-05T08:40:03.049Z,7.1
2019-01-05T08:45:05.595Z,7.1
2019-01-05T08:50:05.301Z,7.1
2019-01-05T08:55:02.780Z,7.1
2019-01-05T09:00:02.886Z,7.1
2019-01-05T09:05:03.129Z,7.1
2019-01-05T09:10:05.264Z,7.2
2019-01-05T09:15:02.911Z,7.1
2019-01-05T09:20:05.656Z,7.2
2019-01-05T09:25:05.695Z,7.3
2019-01-05T09:30:02.868Z,7.3
2019-01-05T09:35:02.930Z,7.3
2019-01-05T09:40:02.438Z,7.3
2019-01-05T09:45:02.592Z,7.3
2019-01-05T09:50:02.766Z,7.4
2019-01-05T09:55:02.776Z,7.4
2019-01-05T10:00:02.905Z,7.5
2019-01-05T10:05:03.075Z,7.5
2019-01-05T10:10:02.594Z,7.6
2019-01-05T10:15:02.698Z,7.7
2019-01-05T10:20:02.877Z,7.8
2019-01-05T10:25:03.045Z,7.8
2019-01-05T10:30:03.108Z,7.8
2019-01-05T10:35:05.761Z,7.8
2019-01-05T10:40:02.355Z,7.8
2019-01-05T10:45:02.494Z,7.8
2019-01-05T10:50:02.549Z,7.8
2019-01-05T10:55:02.697Z,7.9
2019-01-05T11:00:02.867Z,7.9
2019-01-05T11:05:02.876Z,7.9
2019-01-05T11:10:02.471Z,7.8
2019-01-05T11:15:02.545Z,7.8
2019-01-05T11:20:02.740Z,7.8
2019-01-05T11:25:02.775Z,7.8
2019-01-05T11:30:05.440Z,7.8
2019-01-05T11:35:03.056Z,7.8
2019-01-05T11:40:02.627Z,7.8
2019-01-05T11:45:02.832Z,7.9
2019-01-05T11:50:03.102Z,7.8
2019-01-05T11:55:05.674Z,7.8
2019-01-05T12:00:02.859Z,7.8
2019-01-05T12:05:05.632Z,7.8
2019-01-05T12:10:03.356Z,7.8
2019-01-05T12:15:02.477Z,7.8
2019-01-05T12:20:02.606Z,7.9
2019-01-05T12:25:02.711Z,7.9
2019-01-05T12:30:02.898Z,7.8
2019-01-05T12:35:03.044Z,7.8
2019-01-05T12:40:02.485Z,7.8
2019-01-05T12:45:02.632Z,7.8
2019-01-05T12:50:02.770Z,7.7
2019-01-05T12:55:02.785Z,7.7
2019-01-05T13:00:02.963Z,7.7
2019-01-05T13:05:03.104Z,7.7
2019-01-05T13:10:02.730Z,7.7
2019-01-05T13:15:02.900Z,7.6
2019-01-05T13:20:05.612Z,7.7
2019-01-05T13:25:03.159Z,7.7
2019-01-05T13:30:03.326Z,7.7
2019-01-05T13:35:02.457Z,7.7
2019-01-05T13:40:03.081Z,7.7
2019-01-05T13:45:03.241Z,7.7
2019-01-05T13:50:02.382Z,7.8
2019-01-05T13:55:02.449Z,7.7
2019-01-05T14:00:02.546Z,7.7
2019-01-05T14:05:02.599Z,7.8
2019-01-05T14:10:08.204Z,7.8
2019-01-05T14:15:03.269Z,7.8
2019-01-05T14:20:02.468Z,7.8
2019-01-05T14:25:05.148Z,7.7
2019-01-05T14:30:02.602Z,7.7
2019-01-05T14:35:02.790Z,7.7
2019-01-05T14:40:02.375Z,7.7
2019-01-05T14:45:02.545Z,7.8
2019-01-05T14:50:02.739Z,7.7
2019-01-05T14:55:02.754Z,7.7
2019-01-05T15:00:02.866Z,7.7
2019-01-05T15:05:02.881Z,7.7
2019-01-05T15:10:02.440Z,7.6
2019-01-05T15:15:02.616Z,7.6
2019-01-05T15:20:02.798Z,7.6
2019-01-05T15:25:02.576Z,7.6
2019-01-05T15:30:02.643Z,7.6
2019-01-05T15:35:02.805Z,7.6
2019-01-05T15:40:02.403Z,7.5
2019-01-05T15:45:05.058Z,7.4
2019-01-05T15:50:03.144Z,7.4
2019-01-05T15:55:03.190Z,7.4
2019-01-05T16:00:03.332Z,7.4
2019-01-05T16:05:02.470Z,7.3
2019-01-05T16:10:03.084Z,7.3
2019-01-05T16:15:03.256Z,7.3
2019-01-05T16:20:02.430Z,7.2
2019-01-05T16:25:02.615Z,7.1
2019-01-05T16:30:02.697Z,7
2019-01-05T16:35:02.835Z,6.9
2019-01-05T16:40:02.773Z,6.9
2019-01-05T16:45:02.908Z,6.8
2019-01-05T16:50:08.156Z,6.7
2019-01-05T16:55:03.129Z,6.7
2019-01-05T17:00:02.292Z,6.6
2019-01-05T17:05:02.470Z,6.6
2019-01-05T17:10:03.080Z,6.5
2019-01-05T17:15:03.245Z,6.5
2019-01-05T17:20:02.409Z,6.5
2019-01-05T17:25:02.596Z,6.4
2019-01-05T17:30:02.859Z,6.4
2019-01-05T17:35:02.875Z,6.4
2019-01-05T17:40:02.426Z,6.4
2019-01-05T17:45:05.063Z,6.4
2019-01-05T17:50:03.212Z,6.4
2019-01-05T17:55:02.436Z,6.4
2019-01-05T18:00:02.584Z,6.4
2019-01-05T18:05:02.803Z,6.4
2019-01-05T18:10:02.475Z,6.3
2019-01-05T18:15:02.590Z,6.3
2019-01-05T18:20:02.820Z,6.3
2019-01-05T18:25:03.116Z,6.3
2019-01-05T18:30:03.315Z,6.2
2019-01-05T18:35:02.507Z,6.2
2019-01-05T18:40:03.156Z,6.2
2019-01-05T18:45:02.330Z,6.2
2019-01-05T18:50:02.499Z,6.1
2019-01-05T18:55:02.672Z,6.1
2019-01-05T19:00:05.470Z,6
2019-01-05T19:05:03.085Z,6
2019-01-05T19:10:02.738Z,6
2019-01-05T19:15:03.031Z,5.8
2019-01-05T19:20:03.291Z,5.7
2019-01-05T19:25:02.502Z,5.6
2019-01-05T19:30:02.657Z,5.5
2019-01-05T19:35:02.853Z,5.4
2019-01-05T19:40:07.548Z,5.3
2019-01-05T19:45:02.588Z,5.3
2019-01-05T19:50:02.641Z,5.3
2019-01-05T19:55:02.757Z,5.2
2019-01-05T20:00:02.900Z,5.2
2019-01-05T20:05:02.900Z,5.1
2019-01-05T20:10:02.438Z,5.1
2019-01-05T20:15:02.553Z,5
2019-01-05T20:20:05.160Z,4.9
2019-01-05T20:25:02.721Z,4.9
2019-01-05T20:30:02.878Z,4.9
2019-01-05T20:35:02.874Z,4.9
2019-01-05T20:40:02.413Z,4.8
2019-01-05T20:45:02.569Z,4.7
2019-01-05T20:50:02.623Z,4.6
2019-01-05T20:55:02.710Z,4.5
2019-01-05T21:00:02.881Z,4.5
2019-01-05T21:05:02.916Z,4.4
2019-01-05T21:10:02.595Z,4.4
2019-01-05T21:15:02.687Z,4.3
2019-01-05T21:20:02.813Z,4.2
2019-01-05T21:25:02.979Z,4.2
2019-01-05T21:30:05.581Z,4
2019-01-05T21:35:03.218Z,4
2019-01-05T21:40:02.761Z,3.9
2019-01-05T21:45:02.923Z,3.8
2019-01-05T21:50:02.958Z,3.7
2019-01-05T21:55:03.059Z,3.6
2019-01-05T22:00:03.072Z,3.5
2019-01-05T22:05:03.217Z,3.5
2019-01-05T22:10:02.754Z,3.5
2019-01-05T22:15:02.963Z,3.4
2019-01-05T22:20:05.686Z,3.2
2019-01-05T22:25:03.146Z,3.2
2019-01-05T22:30:05.792Z,3.1
2019-01-05T22:35:02.428Z,3.1
2019-01-05T22:40:03.025Z,3.1
2019-01-05T22:45:03.018Z,3.1
2019-01-05T22:50:03.136Z,3.1
2019-01-05T22:55:03.155Z,3.1
2019-01-05T23:00:03.288Z,3.1
2019-01-05T23:05:02.382Z,3.2
2019-01-05T23:10:05.379Z,3.2
2019-01-05T23:15:02.941Z,3.2
2019-01-05T23:20:03.113Z,3.2
2019-01-05T23:25:03.163Z,3.2
2019-01-05T23:30:03.288Z,3.1
2019-01-05T23:35:02.368Z,3.1
2019-01-05T23:40:02.827Z,3.1
2019-01-05T23:45:02.937Z,3.1
2019-01-05T23:50:05.628Z,3
2019-01-05T23:55:03.137Z,3
